sensor_id;sensor_type;location;lat;lon;timestamp;P1;durP1;ratioP1;P2;durP2;ratioP2
37851;SDS011;23691;52.486;4.650;2023-04-29T00:00:50;33.47;;;17.63;;
37851;SDS011;23691;52.486;4.650;2023-04-29T00:03:15;32.10;;;17.27;;
37851;SDS011;23691;52.486;4.650;2023-04-29T00:05:46;31.17;;;17.27;;
37851;SDS011;23691;52.486;4.650;2023-04-29T00:08:11;32.88;;;17.25;;
37851;SDS011;23691;52.486;4.650;2023-04-29T00:10:40;29.55;;;15.90;;
37851;SDS011;23691;52.486;4.650;2023-04-29T00:13:05;32.58;;;17.05;;
37851;SDS011;23691;52.486;4.650;2023-04-29T00:15:31;28.52;;;17.20;;
37851;SDS011;23691;52.486;4.650;2023-04-29T00:17:56;32.70;;;17.60;;
37851;SDS011;23691;52.486;4.650;2023-04-29T00:20:22;30.98;;;16.27;;
37851;SDS011;23691;52.486;4.650;2023-04-29T00:22:47;29.85;;;16.90;;
37851;SDS011;23691;52.486;4.650;2023-04-29T00:25:13;29.05;;;16.40;;
37851;SDS011;23691;52.486;4.650;2023-04-29T00:27:42;29.42;;;17.13;;
37851;SDS011;23691;52.486;4.650;2023-04-29T00:30:10;28.58;;;15.55;;
37851;SDS011;23691;52.486;4.650;2023-04-29T00:32:35;28.25;;;15.60;;
37851;SDS011;23691;52.486;4.650;2023-04-29T00:35:01;26.05;;;15.30;;
37851;SDS011;23691;52.486;4.650;2023-04-29T00:37:27;27.02;;;14.65;;
37851;SDS011;23691;52.486;4.650;2023-04-29T00:39:52;25.60;;;14.38;;
37851;SDS011;23691;52.486;4.650;2023-04-29T00:42:21;25.15;;;14.50;;
37851;SDS011;23691;52.486;4.650;2023-04-29T00:44:46;26.17;;;14.38;;
37851;SDS011;23691;52.486;4.650;2023-04-29T00:47:12;30.02;;;14.48;;
37851;SDS011;23691;52.486;4.650;2023-04-29T00:49:38;23.38;;;13.15;;
37851;SDS011;23691;52.486;4.650;2023-04-29T00:52:04;26.00;;;13.82;;
37851;SDS011;23691;52.486;4.650;2023-04-29T00:54:32;26.70;;;14.05;;
37851;SDS011;23691;52.486;4.650;2023-04-29T00:57:01;26.80;;;14.25;;
37851;SDS011;23691;52.486;4.650;2023-04-29T00:59:28;28.75;;;14.18;;
37851;SDS011;23691;52.486;4.650;2023-04-29T01:01:59;28.30;;;15.63;;
37851;SDS011;23691;52.486;4.650;2023-04-29T01:04:26;28.95;;;15.48;;
37851;SDS011;23691;52.486;4.650;2023-04-29T01:07:00;28.58;;;15.88;;
37851;SDS011;23691;52.486;4.650;2023-04-29T01:09:38;29.83;;;15.40;;
37851;SDS011;23691;52.486;4.650;2023-04-29T01:12:14;27.27;;;15.23;;
37851;SDS011;23691;52.486;4.650;2023-04-29T01:14:57;28.02;;;15.55;;
37851;SDS011;23691;52.486;4.650;2023-04-29T01:17:40;28.25;;;15.68;;
37851;SDS011;23691;52.486;4.650;2023-04-29T01:20:12;29.50;;;15.27;;
37851;SDS011;23691;52.486;4.650;2023-04-29T01:22:39;27.98;;;16.17;;
37851;SDS011;23691;52.486;4.650;2023-04-29T01:25:05;23.77;;;14.20;;
37851;SDS011;23691;52.486;4.650;2023-04-29T01:30:33;24.63;;;14.73;;
37851;SDS011;23691;52.486;4.650;2023-04-29T01:33:22;25.17;;;14.55;;
37851;SDS011;23691;52.486;4.650;2023-04-29T01:38:49;27.73;;;14.90;;
37851;SDS011;23691;52.486;4.650;2023-04-29T01:41:30;23.60;;;14.05;;
37851;SDS011;23691;52.486;4.650;2023-04-29T01:44:01;23.45;;;14.02;;
37851;SDS011;23691;52.486;4.650;2023-04-29T01:46:27;25.50;;;14.07;;
37851;SDS011;23691;52.486;4.650;2023-04-29T01:48:53;27.77;;;14.32;;
37851;SDS011;23691;52.486;4.650;2023-04-29T01:51:19;27.48;;;14.13;;
37851;SDS011;23691;52.486;4.650;2023-04-29T01:53:44;25.50;;;14.10;;
37851;SDS011;23691;52.486;4.650;2023-04-29T01:56:09;28.58;;;13.75;;
37851;SDS011;23691;52.486;4.650;2023-04-29T01:58:35;24.67;;;14.52;;
37851;SDS011;23691;52.486;4.650;2023-04-29T02:01:00;30.10;;;14.65;;
37851;SDS011;23691;52.486;4.650;2023-04-29T02:03:26;28.77;;;14.73;;
37851;SDS011;23691;52.486;4.650;2023-04-29T02:05:51;28.25;;;15.02;;
37851;SDS011;23691;52.486;4.650;2023-04-29T02:08:17;25.33;;;13.82;;
37851;SDS011;23691;52.486;4.650;2023-04-29T02:10:55;27.63;;;13.75;;
37851;SDS011;23691;52.486;4.650;2023-04-29T02:13:21;27.23;;;14.13;;
37851;SDS011;23691;52.486;4.650;2023-04-29T02:15:47;25.17;;;14.00;;
37851;SDS011;23691;52.486;4.650;2023-04-29T02:18:12;26.70;;;13.90;;
37851;SDS011;23691;52.486;4.650;2023-04-29T02:20:38;29.60;;;14.25;;
37851;SDS011;23691;52.486;4.650;2023-04-29T02:23:03;28.55;;;13.23;;
37851;SDS011;23691;52.486;4.650;2023-04-29T02:25:29;27.73;;;14.60;;
37851;SDS011;23691;52.486;4.650;2023-04-29T02:27:54;31.40;;;14.00;;
37851;SDS011;23691;52.486;4.650;2023-04-29T02:30:20;28.90;;;14.32;;
37851;SDS011;23691;52.486;4.650;2023-04-29T02:32:45;27.48;;;13.23;;
37851;SDS011;23691;52.486;4.650;2023-04-29T02:35:10;25.52;;;14.02;;
37851;SDS011;23691;52.486;4.650;2023-04-29T02:37:36;27.17;;;13.95;;
37851;SDS011;23691;52.486;4.650;2023-04-29T02:40:02;31.83;;;15.35;;
37851;SDS011;23691;52.486;4.650;2023-04-29T02:42:28;36.13;;;16.30;;
37851;SDS011;23691;52.486;4.650;2023-04-29T02:44:53;42.38;;;18.33;;
37851;SDS011;23691;52.486;4.650;2023-04-29T02:47:19;36.17;;;17.60;;
37851;SDS011;23691;52.486;4.650;2023-04-29T02:49:45;39.85;;;18.05;;
37851;SDS011;23691;52.486;4.650;2023-04-29T02:52:11;32.45;;;17.63;;
37851;SDS011;23691;52.486;4.650;2023-04-29T02:54:36;38.63;;;18.92;;
37851;SDS011;23691;52.486;4.650;2023-04-29T02:57:02;36.80;;;17.83;;
37851;SDS011;23691;52.486;4.650;2023-04-29T02:59:27;37.17;;;18.60;;
37851;SDS011;23691;52.486;4.650;2023-04-29T03:01:53;37.50;;;18.02;;
37851;SDS011;23691;52.486;4.650;2023-04-29T03:04:18;34.30;;;19.33;;
37851;SDS011;23691;52.486;4.650;2023-04-29T03:06:44;38.40;;;18.92;;
37851;SDS011;23691;52.486;4.650;2023-04-29T03:09:10;37.72;;;18.75;;
37851;SDS011;23691;52.486;4.650;2023-04-29T03:11:39;34.63;;;18.98;;
37851;SDS011;23691;52.486;4.650;2023-04-29T03:14:05;34.15;;;18.40;;
37851;SDS011;23691;52.486;4.650;2023-04-29T03:16:30;38.10;;;18.90;;
37851;SDS011;23691;52.486;4.650;2023-04-29T03:18:56;33.63;;;19.40;;
37851;SDS011;23691;52.486;4.650;2023-04-29T03:21:22;37.20;;;19.05;;
37851;SDS011;23691;52.486;4.650;2023-04-29T03:23:49;35.80;;;19.00;;
37851;SDS011;23691;52.486;4.650;2023-04-29T03:26:14;36.45;;;18.45;;
37851;SDS011;23691;52.486;4.650;2023-04-29T03:28:40;37.63;;;19.27;;
37851;SDS011;23691;52.486;4.650;2023-04-29T03:31:06;35.28;;;18.98;;
37851;SDS011;23691;52.486;4.650;2023-04-29T03:33:31;34.42;;;18.73;;
37851;SDS011;23691;52.486;4.650;2023-04-29T03:35:56;36.92;;;17.88;;
37851;SDS011;23691;52.486;4.650;2023-04-29T03:38:22;34.10;;;18.10;;
37851;SDS011;23691;52.486;4.650;2023-04-29T03:40:48;36.95;;;18.67;;
37851;SDS011;23691;52.486;4.650;2023-04-29T03:43:13;31.48;;;18.00;;
37851;SDS011;23691;52.486;4.650;2023-04-29T03:45:39;38.15;;;18.55;;
37851;SDS011;23691;52.486;4.650;2023-04-29T03:48:05;38.53;;;19.33;;
37851;SDS011;23691;52.486;4.650;2023-04-29T03:50:30;35.00;;;18.42;;
37851;SDS011;23691;52.486;4.650;2023-04-29T03:52:56;33.95;;;18.67;;
37851;SDS011;23691;52.486;4.650;2023-04-29T03:55:21;38.20;;;18.90;;
37851;SDS011;23691;52.486;4.650;2023-04-29T03:57:47;33.30;;;17.73;;
37851;SDS011;23691;52.486;4.650;2023-04-29T04:00:12;36.42;;;17.67;;
37851;SDS011;23691;52.486;4.650;2023-04-29T04:02:38;34.90;;;17.90;;
37851;SDS011;23691;52.486;4.650;2023-04-29T04:05:03;34.72;;;18.50;;
37851;SDS011;23691;52.486;4.650;2023-04-29T04:07:29;32.60;;;17.63;;
37851;SDS011;23691;52.486;4.650;2023-04-29T04:09:54;35.20;;;17.80;;
37851;SDS011;23691;52.486;4.650;2023-04-29T04:12:20;32.80;;;17.02;;
37851;SDS011;23691;52.486;4.650;2023-04-29T04:14:45;32.33;;;16.77;;
37851;SDS011;23691;52.486;4.650;2023-04-29T04:17:11;32.90;;;16.73;;
37851;SDS011;23691;52.486;4.650;2023-04-29T04:19:36;31.52;;;17.10;;
37851;SDS011;23691;52.486;4.650;2023-04-29T04:22:02;36.65;;;17.90;;
37851;SDS011;23691;52.486;4.650;2023-04-29T04:24:28;34.00;;;17.70;;
37851;SDS011;23691;52.486;4.650;2023-04-29T04:26:54;36.30;;;18.40;;
37851;SDS011;23691;52.486;4.650;2023-04-29T04:29:19;35.53;;;17.95;;
37851;SDS011;23691;52.486;4.650;2023-04-29T04:31:45;35.72;;;17.88;;
37851;SDS011;23691;52.486;4.650;2023-04-29T04:34:10;36.38;;;18.98;;
37851;SDS011;23691;52.486;4.650;2023-04-29T04:36:36;37.72;;;18.38;;
37851;SDS011;23691;52.486;4.650;2023-04-29T04:39:01;30.40;;;17.15;;
37851;SDS011;23691;52.486;4.650;2023-04-29T04:41:27;34.17;;;17.63;;
37851;SDS011;23691;52.486;4.650;2023-04-29T04:43:55;36.38;;;17.52;;
37851;SDS011;23691;52.486;4.650;2023-04-29T04:46:21;35.80;;;17.45;;
37851;SDS011;23691;52.486;4.650;2023-04-29T04:48:46;34.78;;;17.30;;
37851;SDS011;23691;52.486;4.650;2023-04-29T04:51:13;32.13;;;16.60;;
37851;SDS011;23691;52.486;4.650;2023-04-29T04:53:39;36.30;;;16.52;;
37851;SDS011;23691;52.486;4.650;2023-04-29T04:56:05;33.35;;;16.25;;
37851;SDS011;23691;52.486;4.650;2023-04-29T05:00:58;32.45;;;16.02;;
37851;SDS011;23691;52.486;4.650;2023-04-29T05:03:24;30.55;;;15.45;;
37851;SDS011;23691;52.486;4.650;2023-04-29T05:05:53;33.45;;;16.10;;
37851;SDS011;23691;52.486;4.650;2023-04-29T05:08:23;31.40;;;14.48;;
37851;SDS011;23691;52.486;4.650;2023-04-29T05:10:49;26.67;;;13.90;;
37851;SDS011;23691;52.486;4.650;2023-04-29T05:13:14;28.80;;;14.05;;
37851;SDS011;23691;52.486;4.650;2023-04-29T05:15:40;29.60;;;13.98;;
37851;SDS011;23691;52.486;4.650;2023-04-29T05:18:05;30.45;;;13.07;;
37851;SDS011;23691;52.486;4.650;2023-04-29T05:20:31;30.02;;;12.88;;
37851;SDS011;23691;52.486;4.650;2023-04-29T05:22:56;28.63;;;12.98;;
37851;SDS011;23691;52.486;4.650;2023-04-29T05:25:21;28.30;;;12.10;;
37851;SDS011;23691;52.486;4.650;2023-04-29T05:27:47;27.05;;;12.68;;
37851;SDS011;23691;52.486;4.650;2023-04-29T05:30:12;30.25;;;13.15;;
37851;SDS011;23691;52.486;4.650;2023-04-29T05:32:37;30.67;;;12.85;;
37851;SDS011;23691;52.486;4.650;2023-04-29T05:35:03;28.63;;;12.48;;
37851;SDS011;23691;52.486;4.650;2023-04-29T05:37:28;24.63;;;11.93;;
37851;SDS011;23691;52.486;4.650;2023-04-29T05:39:56;29.15;;;12.82;;
37851;SDS011;23691;52.486;4.650;2023-04-29T05:42:21;29.67;;;12.38;;
37851;SDS011;23691;52.486;4.650;2023-04-29T05:44:47;27.55;;;11.30;;
37851;SDS011;23691;52.486;4.650;2023-04-29T05:47:13;26.85;;;12.00;;
37851;SDS011;23691;52.486;4.650;2023-04-29T05:49:38;24.75;;;10.48;;
37851;SDS011;23691;52.486;4.650;2023-04-29T05:52:03;25.65;;;11.70;;
37851;SDS011;23691;52.486;4.650;2023-04-29T05:54:30;26.00;;;12.20;;
37851;SDS011;23691;52.486;4.650;2023-04-29T05:56:57;25.08;;;10.75;;
37851;SDS011;23691;52.486;4.650;2023-04-29T05:59:22;25.05;;;10.75;;
37851;SDS011;23691;52.486;4.650;2023-04-29T06:01:47;24.20;;;10.52;;
37851;SDS011;23691;52.486;4.650;2023-04-29T06:04:13;24.05;;;11.18;;
37851;SDS011;23691;52.486;4.650;2023-04-29T06:06:38;28.45;;;10.65;;
37851;SDS011;23691;52.486;4.650;2023-04-29T06:09:03;24.33;;;10.27;;
37851;SDS011;23691;52.486;4.650;2023-04-29T06:11:29;23.70;;;10.15;;
37851;SDS011;23691;52.486;4.650;2023-04-29T06:13:55;24.23;;;10.52;;
37851;SDS011;23691;52.486;4.650;2023-04-29T06:16:21;20.58;;;9.73;;
37851;SDS011;23691;52.486;4.650;2023-04-29T06:18:47;23.02;;;9.93;;
37851;SDS011;23691;52.486;4.650;2023-04-29T06:21:12;20.85;;;9.60;;
37851;SDS011;23691;52.486;4.650;2023-04-29T06:23:37;24.85;;;10.20;;
37851;SDS011;23691;52.486;4.650;2023-04-29T06:26:03;22.63;;;9.45;;
37851;SDS011;23691;52.486;4.650;2023-04-29T06:28:28;21.50;;;9.25;;
37851;SDS011;23691;52.486;4.650;2023-04-29T06:30:53;21.10;;;9.80;;
37851;SDS011;23691;52.486;4.650;2023-04-29T06:33:19;20.65;;;9.63;;
37851;SDS011;23691;52.486;4.650;2023-04-29T06:35:44;19.27;;;9.13;;
37851;SDS011;23691;52.486;4.650;2023-04-29T06:38:10;19.52;;;9.15;;
37851;SDS011;23691;52.486;4.650;2023-04-29T06:40:35;21.65;;;10.00;;
37851;SDS011;23691;52.486;4.650;2023-04-29T06:43:01;18.50;;;9.23;;
37851;SDS011;23691;52.486;4.650;2023-04-29T06:45:27;22.73;;;9.75;;
37851;SDS011;23691;52.486;4.650;2023-04-29T06:47:52;21.17;;;8.75;;
37851;SDS011;23691;52.486;4.650;2023-04-29T06:50:18;20.05;;;8.40;;
37851;SDS011;23691;52.486;4.650;2023-04-29T06:52:44;18.08;;;8.27;;
37851;SDS011;23691;52.486;4.650;2023-04-29T06:55:09;21.35;;;8.75;;
37851;SDS011;23691;52.486;4.650;2023-04-29T06:57:35;18.30;;;8.40;;
37851;SDS011;23691;52.486;4.650;2023-04-29T07:00:01;16.55;;;8.50;;
37851;SDS011;23691;52.486;4.650;2023-04-29T07:02:29;19.73;;;8.98;;
37851;SDS011;23691;52.486;4.650;2023-04-29T07:04:54;20.55;;;8.18;;
37851;SDS011;23691;52.486;4.650;2023-04-29T07:07:19;16.70;;;8.13;;
37851;SDS011;23691;52.486;4.650;2023-04-29T07:09:45;19.73;;;8.45;;
37851;SDS011;23691;52.486;4.650;2023-04-29T07:12:10;17.95;;;7.68;;
37851;SDS011;23691;52.486;4.650;2023-04-29T07:14:35;21.27;;;8.20;;
37851;SDS011;23691;52.486;4.650;2023-04-29T07:17:01;18.42;;;8.10;;
37851;SDS011;23691;52.486;4.650;2023-04-29T07:19:26;16.75;;;8.50;;
37851;SDS011;23691;52.486;4.650;2023-04-29T07:21:52;20.17;;;8.45;;
37851;SDS011;23691;52.486;4.650;2023-04-29T07:24:17;17.50;;;7.60;;
37851;SDS011;23691;52.486;4.650;2023-04-29T07:26:43;18.30;;;7.10;;
37851;SDS011;23691;52.486;4.650;2023-04-29T07:29:11;19.75;;;7.15;;
37851;SDS011;23691;52.486;4.650;2023-04-29T07:31:36;15.63;;;7.63;;
37851;SDS011;23691;52.486;4.650;2023-04-29T07:34:02;19.35;;;7.97;;
37851;SDS011;23691;52.486;4.650;2023-04-29T07:36:28;21.80;;;7.18;;
37851;SDS011;23691;52.486;4.650;2023-04-29T07:38:53;14.55;;;7.90;;
37851;SDS011;23691;52.486;4.650;2023-04-29T07:41:19;15.60;;;7.07;;
37851;SDS011;23691;52.486;4.650;2023-04-29T07:43:45;15.90;;;6.78;;
37851;SDS011;23691;52.486;4.650;2023-04-29T07:46:10;18.23;;;7.28;;
37851;SDS011;23691;52.486;4.650;2023-04-29T07:48:36;20.58;;;7.15;;
37851;SDS011;23691;52.486;4.650;2023-04-29T07:51:03;15.93;;;7.30;;
37851;SDS011;23691;52.486;4.650;2023-04-29T07:53:29;15.40;;;6.70;;
37851;SDS011;23691;52.486;4.650;2023-04-29T07:55:54;15.07;;;6.97;;
37851;SDS011;23691;52.486;4.650;2023-04-29T07:58:20;14.77;;;6.35;;
37851;SDS011;23691;52.486;4.650;2023-04-29T08:00:45;15.52;;;6.40;;
37851;SDS011;23691;52.486;4.650;2023-04-29T08:03:11;13.73;;;4.97;;
37851;SDS011;23691;52.486;4.650;2023-04-29T08:05:37;17.90;;;5.78;;
37851;SDS011;23691;52.486;4.650;2023-04-29T08:08:03;15.65;;;4.97;;
37851;SDS011;23691;52.486;4.650;2023-04-29T08:10:28;16.73;;;4.75;;
37851;SDS011;23691;52.486;4.650;2023-04-29T08:12:53;13.07;;;5.22;;
37851;SDS011;23691;52.486;4.650;2023-04-29T08:15:19;12.13;;;4.32;;
37851;SDS011;23691;52.486;4.650;2023-04-29T08:17:44;14.65;;;4.57;;
37851;SDS011;23691;52.486;4.650;2023-04-29T08:20:10;15.00;;;4.28;;
37851;SDS011;23691;52.486;4.650;2023-04-29T08:22:35;14.63;;;4.25;;
37851;SDS011;23691;52.486;4.650;2023-04-29T08:25:02;16.77;;;4.30;;
37851;SDS011;23691;52.486;4.650;2023-04-29T08:27:29;15.45;;;4.10;;
37851;SDS011;23691;52.486;4.650;2023-04-29T08:29:54;15.15;;;3.92;;
37851;SDS011;23691;52.486;4.650;2023-04-29T08:32:20;12.38;;;3.72;;
37851;SDS011;23691;52.486;4.650;2023-04-29T08:34:46;14.32;;;4.00;;
37851;SDS011;23691;52.486;4.650;2023-04-29T08:37:11;12.45;;;4.00;;
37851;SDS011;23691;52.486;4.650;2023-04-29T08:39:36;14.25;;;3.92;;
37851;SDS011;23691;52.486;4.650;2023-04-29T08:42:08;15.60;;;4.13;;
37851;SDS011;23691;52.486;4.650;2023-04-29T08:44:34;13.90;;;3.97;;
37851;SDS011;23691;52.486;4.650;2023-04-29T08:47:01;16.48;;;4.13;;
37851;SDS011;23691;52.486;4.650;2023-04-29T08:49:30;11.07;;;3.50;;
37851;SDS011;23691;52.486;4.650;2023-04-29T08:51:57;13.52;;;4.20;;
37851;SDS011;23691;52.486;4.650;2023-04-29T08:54:23;9.95;;;3.60;;
37851;SDS011;23691;52.486;4.650;2023-04-29T08:56:48;16.73;;;4.15;;
37851;SDS011;23691;52.486;4.650;2023-04-29T08:59:17;14.03;;;4.17;;
37851;SDS011;23691;52.486;4.650;2023-04-29T09:01:44;11.15;;;4.10;;
37851;SDS011;23691;52.486;4.650;2023-04-29T09:07:00;13.32;;;4.75;;
37851;SDS011;23691;52.486;4.650;2023-04-29T09:09:28;14.90;;;4.60;;
37851;SDS011;23691;52.486;4.650;2023-04-29T09:11:54;13.20;;;4.50;;
37851;SDS011;23691;52.486;4.650;2023-04-29T09:14:19;11.35;;;4.75;;
37851;SDS011;23691;52.486;4.650;2023-04-29T09:16:48;15.82;;;5.05;;
37851;SDS011;23691;52.486;4.650;2023-04-29T09:19:29;13.93;;;5.03;;
37851;SDS011;23691;52.486;4.650;2023-04-29T09:21:56;14.30;;;4.55;;
37851;SDS011;23691;52.486;4.650;2023-04-29T09:24:25;13.07;;;4.78;;
37851;SDS011;23691;52.486;4.650;2023-04-29T09:26:52;12.45;;;4.97;;
37851;SDS011;23691;52.486;4.650;2023-04-29T09:29:18;13.80;;;4.40;;
37851;SDS011;23691;52.486;4.650;2023-04-29T09:31:44;12.77;;;3.97;;
37851;SDS011;23691;52.486;4.650;2023-04-29T09:34:10;11.70;;;3.95;;
37851;SDS011;23691;52.486;4.650;2023-04-29T09:36:47;14.70;;;4.07;;
37851;SDS011;23691;52.486;4.650;2023-04-29T09:39:14;15.88;;;4.03;;
37851;SDS011;23691;52.486;4.650;2023-04-29T09:44:22;17.00;;;5.85;;
37851;SDS011;23691;52.486;4.650;2023-04-29T09:46:55;12.82;;;5.15;;
37851;SDS011;23691;52.486;4.650;2023-04-29T09:49:27;12.75;;;4.30;;
37851;SDS011;23691;52.486;4.650;2023-04-29T09:51:58;14.73;;;4.38;;
37851;SDS011;23691;52.486;4.650;2023-04-29T09:54:25;17.80;;;4.47;;
37851;SDS011;23691;52.486;4.650;2023-04-29T09:56:53;14.43;;;3.90;;
37851;SDS011;23691;52.486;4.650;2023-04-29T09:59:19;9.80;;;3.30;;
37851;SDS011;23691;52.486;4.650;2023-04-29T10:01:51;12.10;;;3.90;;
37851;SDS011;23691;52.486;4.650;2023-04-29T10:04:21;11.50;;;3.97;;
37851;SDS011;23691;52.486;4.650;2023-04-29T10:06:49;11.27;;;3.92;;
37851;SDS011;23691;52.486;4.650;2023-04-29T10:09:15;12.03;;;3.70;;
37851;SDS011;23691;52.486;4.650;2023-04-29T10:11:46;14.02;;;3.90;;
37851;SDS011;23691;52.486;4.650;2023-04-29T10:14:22;14.00;;;3.50;;
37851;SDS011;23691;52.486;4.650;2023-04-29T10:17:02;10.75;;;3.72;;
37851;SDS011;23691;52.486;4.650;2023-04-29T10:19:51;13.27;;;3.78;;
37851;SDS011;23691;52.486;4.650;2023-04-29T10:22:26;14.73;;;4.20;;
37851;SDS011;23691;52.486;4.650;2023-04-29T10:24:57;11.57;;;4.28;;
37851;SDS011;23691;52.486;4.650;2023-04-29T10:27:25;11.88;;;4.30;;
37851;SDS011;23691;52.486;4.650;2023-04-29T10:29:52;13.20;;;3.80;;
37851;SDS011;23691;52.486;4.650;2023-04-29T10:32:20;11.15;;;4.03;;
37851;SDS011;23691;52.486;4.650;2023-04-29T10:34:46;15.50;;;4.00;;
37851;SDS011;23691;52.486;4.650;2023-04-29T10:37:13;14.65;;;3.55;;
37851;SDS011;23691;52.486;4.650;2023-04-29T10:39:52;20.25;;;4.30;;
37851;SDS011;23691;52.486;4.650;2023-04-29T10:45:24;13.18;;;3.67;;
37851;SDS011;23691;52.486;4.650;2023-04-29T10:48:09;14.10;;;3.40;;
37851;SDS011;23691;52.486;4.650;2023-04-29T10:50:59;10.32;;;3.17;;
37851;SDS011;23691;52.486;4.650;2023-04-29T10:53:26;11.45;;;3.40;;
37851;SDS011;23691;52.486;4.650;2023-04-29T10:55:53;10.63;;;3.80;;
37851;SDS011;23691;52.486;4.650;2023-04-29T11:01:05;11.25;;;3.72;;
37851;SDS011;23691;52.486;4.650;2023-04-29T11:03:47;16.15;;;3.88;;
37851;SDS011;23691;52.486;4.650;2023-04-29T11:06:37;12.25;;;3.22;;
37851;SDS011;23691;52.486;4.650;2023-04-29T11:09:09;12.65;;;3.33;;
37851;SDS011;23691;52.486;4.650;2023-04-29T11:12:19;12.60;;;3.33;;
37851;SDS011;23691;52.486;4.650;2023-04-29T11:17:12;10.27;;;3.13;;
37851;SDS011;23691;52.486;4.650;2023-04-29T11:19:40;13.82;;;3.55;;
37851;SDS011;23691;52.486;4.650;2023-04-29T11:24:47;13.18;;;3.58;;
37851;SDS011;23691;52.486;4.650;2023-04-29T11:27:17;12.68;;;3.40;;
37851;SDS011;23691;52.486;4.650;2023-04-29T11:29:44;11.10;;;3.30;;
37851;SDS011;23691;52.486;4.650;2023-04-29T11:32:11;12.57;;;3.00;;
37851;SDS011;23691;52.486;4.650;2023-04-29T11:34:39;25.10;;;4.38;;
37851;SDS011;23691;52.486;4.650;2023-04-29T11:37:05;15.55;;;3.30;;
37851;SDS011;23691;52.486;4.650;2023-04-29T11:39:34;15.00;;;3.05;;
37851;SDS011;23691;52.486;4.650;2023-04-29T11:42:06;11.82;;;3.28;;
37851;SDS011;23691;52.486;4.650;2023-04-29T11:44:32;10.48;;;3.00;;
37851;SDS011;23691;52.486;4.650;2023-04-29T11:47:10;12.43;;;3.00;;
37851;SDS011;23691;52.486;4.650;2023-04-29T11:49:36;11.13;;;2.90;;
37851;SDS011;23691;52.486;4.650;2023-04-29T11:52:02;11.32;;;2.92;;
37851;SDS011;23691;52.486;4.650;2023-04-29T11:54:30;10.10;;;2.90;;
37851;SDS011;23691;52.486;4.650;2023-04-29T11:56:56;10.85;;;2.83;;
37851;SDS011;23691;52.486;4.650;2023-04-29T11:59:22;11.07;;;3.03;;
37851;SDS011;23691;52.486;4.650;2023-04-29T12:01:49;11.40;;;2.72;;
37851;SDS011;23691;52.486;4.650;2023-04-29T12:04:15;12.30;;;3.00;;
37851;SDS011;23691;52.486;4.650;2023-04-29T12:06:41;8.27;;;2.60;;
37851;SDS011;23691;52.486;4.650;2023-04-29T12:09:07;10.93;;;2.60;;
37851;SDS011;23691;52.486;4.650;2023-04-29T12:11:32;10.07;;;2.50;;
37851;SDS011;23691;52.486;4.650;2023-04-29T12:13:59;9.80;;;2.72;;
37851;SDS011;23691;52.486;4.650;2023-04-29T12:16:27;12.35;;;2.53;;
37851;SDS011;23691;52.486;4.650;2023-04-29T12:18:53;14.05;;;3.00;;
37851;SDS011;23691;52.486;4.650;2023-04-29T12:21:23;16.42;;;3.00;;
37851;SDS011;23691;52.486;4.650;2023-04-29T12:23:49;12.23;;;2.70;;
37851;SDS011;23691;52.486;4.650;2023-04-29T12:26:16;10.90;;;2.50;;
37851;SDS011;23691;52.486;4.650;2023-04-29T12:28:52;11.38;;;2.45;;
37851;SDS011;23691;52.486;4.650;2023-04-29T12:31:18;10.63;;;2.80;;
37851;SDS011;23691;52.486;4.650;2023-04-29T12:33:43;9.27;;;2.92;;
37851;SDS011;23691;52.486;4.650;2023-04-29T12:36:17;9.15;;;2.80;;
37851;SDS011;23691;52.486;4.650;2023-04-29T12:38:43;15.00;;;2.95;;
37851;SDS011;23691;52.486;4.650;2023-04-29T12:41:09;13.48;;;2.70;;
37851;SDS011;23691;52.486;4.650;2023-04-29T12:43:37;10.65;;;2.95;;
37851;SDS011;23691;52.486;4.650;2023-04-29T12:46:05;13.43;;;3.20;;
37851;SDS011;23691;52.486;4.650;2023-04-29T12:48:32;10.85;;;3.00;;
37851;SDS011;23691;52.486;4.650;2023-04-29T12:50:59;14.17;;;3.00;;
37851;SDS011;23691;52.486;4.650;2023-04-29T12:53:25;12.80;;;2.95;;
37851;SDS011;23691;52.486;4.650;2023-04-29T12:55:51;12.80;;;3.20;;
37851;SDS011;23691;52.486;4.650;2023-04-29T12:58:17;10.50;;;2.20;;
37851;SDS011;23691;52.486;4.650;2023-04-29T13:00:42;15.27;;;2.75;;
37851;SDS011;23691;52.486;4.650;2023-04-29T13:03:08;11.27;;;3.05;;
37851;SDS011;23691;52.486;4.650;2023-04-29T13:05:33;10.15;;;2.50;;
37851;SDS011;23691;52.486;4.650;2023-04-29T13:07:59;13.27;;;2.90;;
37851;SDS011;23691;52.486;4.650;2023-04-29T13:10:25;11.63;;;2.40;;
37851;SDS011;23691;52.486;4.650;2023-04-29T13:12:52;11.60;;;2.58;;
37851;SDS011;23691;52.486;4.650;2023-04-29T13:15:17;15.85;;;2.85;;
37851;SDS011;23691;52.486;4.650;2023-04-29T13:17:43;9.02;;;2.58;;
37851;SDS011;23691;52.486;4.650;2023-04-29T13:20:09;9.75;;;2.58;;
37851;SDS011;23691;52.486;4.650;2023-04-29T13:22:36;9.10;;;2.50;;
37851;SDS011;23691;52.486;4.650;2023-04-29T13:25:01;8.55;;;2.47;;
37851;SDS011;23691;52.486;4.650;2023-04-29T13:27:27;10.18;;;2.65;;
37851;SDS011;23691;52.486;4.650;2023-04-29T13:29:53;10.73;;;2.30;;
37851;SDS011;23691;52.486;4.650;2023-04-29T13:32:18;10.45;;;2.38;;
37851;SDS011;23691;52.486;4.650;2023-04-29T13:34:47;9.15;;;2.20;;
37851;SDS011;23691;52.486;4.650;2023-04-29T13:37:13;8.88;;;1.77;;
37851;SDS011;23691;52.486;4.650;2023-04-29T13:39:39;8.80;;;2.10;;
37851;SDS011;23691;52.486;4.650;2023-04-29T13:42:04;5.88;;;1.80;;
37851;SDS011;23691;52.486;4.650;2023-04-29T13:44:30;7.40;;;1.73;;
37851;SDS011;23691;52.486;4.650;2023-04-29T13:46:55;8.63;;;1.92;;
37851;SDS011;23691;52.486;4.650;2023-04-29T13:49:21;7.38;;;1.92;;
37851;SDS011;23691;52.486;4.650;2023-04-29T13:51:46;8.95;;;1.85;;
37851;SDS011;23691;52.486;4.650;2023-04-29T13:54:12;12.85;;;1.77;;
37851;SDS011;23691;52.486;4.650;2023-04-29T13:56:40;10.15;;;1.95;;
37851;SDS011;23691;52.486;4.650;2023-04-29T13:59:06;8.93;;;1.70;;
37851;SDS011;23691;52.486;4.650;2023-04-29T14:01:32;7.53;;;1.60;;
37851;SDS011;23691;52.486;4.650;2023-04-29T14:03:57;12.32;;;2.22;;
37851;SDS011;23691;52.486;4.650;2023-04-29T14:06:23;12.40;;;1.85;;
37851;SDS011;23691;52.486;4.650;2023-04-29T14:08:48;7.47;;;1.88;;
37851;SDS011;23691;52.486;4.650;2023-04-29T14:11:14;6.88;;;1.77;;
37851;SDS011;23691;52.486;4.650;2023-04-29T14:13:40;11.13;;;1.70;;
37851;SDS011;23691;52.486;4.650;2023-04-29T14:16:05;6.72;;;1.70;;
37851;SDS011;23691;52.486;4.650;2023-04-29T14:18:31;7.47;;;1.67;;
37851;SDS011;23691;52.486;4.650;2023-04-29T14:20:56;8.60;;;1.67;;
37851;SDS011;23691;52.486;4.650;2023-04-29T14:23:23;5.13;;;1.50;;
37851;SDS011;23691;52.486;4.650;2023-04-29T14:25:49;5.65;;;1.27;;
37851;SDS011;23691;52.486;4.650;2023-04-29T14:28:15;7.95;;;1.50;;
37851;SDS011;23691;52.486;4.650;2023-04-29T14:30:40;5.95;;;1.35;;
37851;SDS011;23691;52.486;4.650;2023-04-29T14:33:07;5.07;;;1.10;;
37851;SDS011;23691;52.486;4.650;2023-04-29T14:35:33;3.10;;;0.98;;
37851;SDS011;23691;52.486;4.650;2023-04-29T14:37:58;8.88;;;1.48;;
37851;SDS011;23691;52.486;4.650;2023-04-29T14:40:23;4.57;;;0.93;;
37851;SDS011;23691;52.486;4.650;2023-04-29T14:42:49;9.35;;;1.33;;
37851;SDS011;23691;52.486;4.650;2023-04-29T14:45:15;5.38;;;1.30;;
37851;SDS011;23691;52.486;4.650;2023-04-29T14:47:41;5.93;;;1.08;;
37851;SDS011;23691;52.486;4.650;2023-04-29T14:50:07;6.15;;;1.30;;
37851;SDS011;23691;52.486;4.650;2023-04-29T14:52:32;4.45;;;1.20;;
37851;SDS011;23691;52.486;4.650;2023-04-29T14:54:58;3.03;;;1.10;;